This is the latest recevied weather packets stored in our database for station/object KI5BDI. If no packets are shown the sender has not sent any weather packets the latest 10 day(s).
| Time | Temp. | Humidity | Pressure | Rain* | Wind** | Luminosity | Snow |
|---|---|---|---|---|---|---|---|
| 1778025918 | 27.78° C | 78% | 1004.7 hPa | 0 mm | - | 93 W/m² | - |
| 1778018720 | 28.33° C | 76% | 1004.2 hPa | 0 mm | - | 320 W/m² | - |
| 1778018140 | 28.33° C | 75% | 1004.3 hPa | 0 mm | - | 410 W/m² | - |
| 1778017520 | 28.33° C | 75% | 1004.2 hPa | 0 mm | - | 344 W/m² | - |
| 1778008519 | 27.22° C | 77% | 1005.3 hPa | 0 mm | - | 589 W/m² | - |
| 1778005517 | 26.11° C | 79% | 1005.7 hPa | 0.76 mm | - | 593 W/m² | - |
| 1777994721 | 23.33° C | 85% | 1005.9 hPa | 0.51 mm | - | 257 W/m² | - |
| 1777988118 | 21.67° C | 90% | 1005.8 hPa | 0 mm | - | 160 W/m² | - |
| 1777982722 | 21.11° C | 92% | 1005.5 hPa | 0 mm | - | 7 W/m² | - |
| 1777979717 | 20.56° C | 91% | 1005.2 hPa | 0 mm | - | 0 W/m² | - |
| 1777977923 | 21.11° C | 90% | 1005.3 hPa | 0 mm | - | 0 W/m² | - |
| 1777976723 | 21.11° C | 89% | 1005.4 hPa | 0 mm | - | 0 W/m² | - |
| 1777973138 | 21.11° C | 88% | 1005.1 hPa | 0 mm | - | 0 W/m² | - |
| 1777970720 | 21.11° C | 88% | 1005.1 hPa | 0 mm | - | 0 W/m² | - |
| 1777965919 | 21.11° C | 87% | 1005.9 hPa | 0 mm | - | 0 W/m² | - |
| 1777960538 | 21.67° C | 83% | 1006.7 hPa | 0 mm | - | 0 W/m² | - |
| 1777959923 | 22.22° C | 83% | 1006.9 hPa | 0 mm | - | 0 W/m² | - |
| 1777953318 | 22.22° C | 80% | 1007.1 hPa | 0 mm | - | 0 W/m² | - |
| 1777946719 | 22.78° C | 76% | 1006.9 hPa | 0 mm | - | 0 W/m² | - |
| 1777945518 | 23.33° C | 74% | 1006.8 hPa | 0 mm | - | 0 W/m² | - |
| 1777943719 | 23.89° C | 72% | 1006.8 hPa | 0 mm | - | 2 W/m² | - |
| 1777943117 | 23.89° C | 71% | 1006.6 hPa | 0 mm | - | 5 W/m² | - |
| 1777939517 | 25° C | 68% | 1006.8 hPa | 0.25 mm | - | 92 W/m² | - |
| 1777936519 | 26.67° C | 63% | 1007.3 hPa | 1.02 mm | - | 274 W/m² | - |
| 1777935319 | 26.11° C | 62% | 1007.3 hPa | 1.02 mm | - | 381 W/m² | - |
* Rain latest hour (hover to see other rain measurements)
** Current wind speed in m/s (hover to see current wind gust speed)